O'Leary, Canada
Current Conditions -  °F | °C
As of 2:00 PM on Wednesday 28 Jan 2015 (Local Time) from CYQM Reporting Station
Light Snow Light Snow  
Wind Chill: -1°   Ceiling: 1300
Heat Index: 18°   Visibility: 0.25mi
Dew Point: 12°   Wind: 25mph
Humidity: 79%   Direction: 360°N
Pressure: 29.71"   Gusts: 35mph
Location:  46.7°N, 64.22°W
Report Text: CYQM 281800Z 36022G30KT 1/4SM R06/P6000FT/N R29/P6000FT/N -SN +BLSN OVC013 M08/M11 A2971 RMK SF8 SLP064
Loading
Personal Weather Stations






























Interactive Weather Map New forecast layout! Learn more

10-Day Weather Forecast

Advertisements
Track Severe Weather on mobile